createdAt,value
2022-10-22T08:49:37.198Z,18.10
2022-10-22T08:52:13.945Z,18.30
2022-10-22T08:54:58.809Z,18.55
2022-10-22T08:57:40.357Z,18.64
2022-10-22T09:00:36.343Z,18.64
2022-10-22T09:03:14.391Z,18.54
2022-10-22T09:06:03.113Z,18.53
2022-10-22T09:08:30.197Z,18.47
2022-10-22T09:11:03.381Z,18.48
2022-10-22T09:13:30.336Z,18.51
2022-10-22T09:16:11.419Z,18.66
2022-10-22T09:19:06.099Z,18.65
2022-10-22T09:21:56.809Z,18.57
2022-10-22T09:24:37.189Z,18.53
2022-10-22T09:27:23.746Z,18.56
2022-10-22T09:29:50.461Z,18.75
2022-10-22T09:32:17.769Z,18.93
2022-10-22T09:34:45.931Z,19.06
2022-10-22T09:37:15.945Z,19.29
2022-10-22T09:39:51.507Z,19.25
2022-10-22T09:42:20.282Z,19.28
2022-10-22T09:44:56.358Z,19.29
2022-10-22T09:47:43.013Z,19.28
2022-10-22T09:50:47.025Z,19.38
2022-10-22T09:53:22.102Z,19.45
2022-10-22T09:55:58.523Z,19.43
2022-10-22T09:58:26.007Z,19.42
2022-10-22T10:00:56.321Z,19.32
2022-10-22T10:03:28.305Z,19.24
2022-10-22T10:06:01.595Z,19.19
2022-10-22T10:08:32.011Z,19.11
2022-10-22T10:11:16.958Z,19.06
2022-10-22T10:14:07.698Z,19.04
2022-10-22T10:16:48.814Z,19.03
2022-10-22T10:19:50.053Z,19.05
2022-10-22T10:22:36.850Z,19.06
2022-10-22T10:25:12.741Z,19.06
2022-10-22T10:27:51.679Z,18.99
2022-10-22T10:30:20.905Z,18.94
2022-10-22T10:32:59.749Z,18.94
2022-10-22T10:35:36.922Z,18.97
2022-10-22T10:38:15.943Z,18.96
2022-10-22T10:40:55.691Z,18.97
2022-10-22T10:43:28.315Z,18.96
2022-10-22T10:46:19.417Z,18.94
2022-10-22T10:48:51.133Z,18.92
2022-10-22T10:51:24.049Z,18.99
2022-10-22T10:54:00.303Z,18.98
2022-10-22T10:56:41.924Z,19.00
2022-10-22T10:59:33.881Z,18.94
2022-10-22T11:02:42.493Z,18.86
2022-10-22T11:05:32.474Z,18.79
2022-10-22T11:08:18.408Z,18.76
2022-10-22T11:11:00.759Z,18.70
2022-10-22T11:13:34.121Z,18.65
2022-10-22T11:16:12.296Z,18.60
2022-10-22T11:18:45.476Z,18.57
2022-10-22T11:21:31.588Z,18.49
2022-10-22T11:24:01.226Z,18.16
2022-10-22T11:26:37.518Z,17.90
2022-10-22T11:29:10.738Z,17.57
2022-10-22T11:31:38.402Z,17.34
2022-10-22T11:34:35.063Z,17.12
2022-10-22T11:37:04.130Z,16.96
2022-10-22T11:39:40.578Z,16.85
2022-10-22T11:42:12.709Z,16.71
2022-10-22T11:44:47.669Z,16.57
2022-10-22T11:47:23.955Z,16.49
2022-10-22T11:50:02.988Z,16.46
2022-10-22T11:52:32.711Z,16.43
2022-10-22T11:55:02.710Z,16.35
2022-10-22T11:57:38.379Z,16.28
2022-10-22T12:00:41.117Z,16.24
2022-10-22T12:03:31.240Z,16.20
2022-10-22T12:06:12.934Z,16.16
2022-10-22T12:08:53.296Z,16.13
2022-10-22T12:11:19.948Z,16.09
2022-10-22T12:14:01.522Z,16.04
2022-10-22T12:16:57.284Z,16.12
2022-10-22T12:19:35.823Z,16.02
2022-10-22T12:22:12.533Z,16.02
2022-10-22T12:24:46.687Z,15.95
2022-10-22T12:27:25.647Z,15.93
2022-10-22T12:29:58.061Z,15.93
2022-10-22T12:32:36.419Z,15.96
2022-10-22T12:35:17.164Z,15.95
2022-10-22T12:37:44.152Z,15.97
2022-10-22T12:40:25.913Z,15.98
2022-10-22T12:42:57.128Z,15.94
2022-10-22T12:45:26.935Z,15.88
2022-10-22T12:48:02.289Z,15.86
2022-10-22T12:50:38.358Z,15.81
2022-10-22T12:53:17.153Z,15.68
2022-10-22T12:55:48.163Z,15.71
2022-10-22T12:58:19.467Z,15.65
2022-10-22T13:00:47.694Z,15.62
2022-10-22T13:03:35.297Z,15.59
2022-10-22T13:06:24.404Z,15.60
2022-10-22T13:09:00.482Z,15.67
2022-10-22T13:11:49.522Z,15.69
2022-10-22T13:14:29.331Z,15.62
2022-10-22T13:17:15.798Z,15.66
2022-10-22T13:19:50.090Z,15.63
2022-10-22T13:22:34.614Z,15.58
2022-10-22T13:25:17.139Z,15.51
2022-10-22T13:27:45.302Z,15.40
2022-10-22T13:30:20.434Z,15.34
2022-10-22T13:32:53.773Z,15.29
2022-10-22T13:35:25.632Z,15.23
2022-10-22T13:37:52.902Z,15.16
2022-10-22T13:40:20.118Z,15.07
2022-10-22T13:42:46.786Z,15.04
2022-10-22T13:45:14.856Z,15.09
2022-10-22T13:47:45.520Z,14.96
2022-10-22T13:50:15.904Z,14.85
2022-10-22T13:52:46.342Z,14.77
2022-10-22T13:55:19.634Z,14.64
2022-10-22T13:57:46.844Z,14.59
2022-10-22T14:00:18.810Z,14.47
2022-10-22T14:02:48.207Z,14.41
2022-10-22T14:05:17.386Z,14.18
2022-10-22T14:07:44.624Z,14.10
2022-10-22T14:10:20.751Z,14.10
2022-10-22T14:12:52.376Z,14.07
2022-10-22T14:15:26.544Z,14.05
2022-10-22T14:17:59.030Z,14.04
2022-10-22T14:20:29.247Z,14.11
2022-10-22T14:22:56.776Z,13.90
2022-10-22T14:25:25.790Z,13.82
2022-10-22T14:27:52.897Z,13.81
2022-10-22T14:30:23.916Z,13.89
2022-10-22T14:32:51.599Z,13.97
2022-10-22T14:35:21.335Z,13.97
2022-10-22T14:37:48.725Z,13.98
2022-10-22T14:40:18.467Z,13.97
2022-10-22T14:42:47.647Z,14.00
2022-10-22T14:45:24.357Z,14.08
2022-10-22T14:47:52.139Z,14.02
2022-10-22T14:50:19.423Z,14.09
2022-10-22T14:52:46.120Z,14.02
2022-10-22T14:55:14.633Z,14.06
2022-10-22T14:57:42.121Z,14.05
2022-10-22T15:00:12.592Z,14.05
2022-10-22T15:02:39.412Z,13.92
2022-10-22T15:05:07.010Z,13.85
2022-10-22T15:07:34.394Z,13.93
2022-10-22T15:10:01.132Z,13.87
2022-10-22T15:12:27.830Z,13.81
2022-10-22T15:14:54.447Z,13.78
2022-10-22T15:17:21.072Z,13.74
2022-10-22T15:19:47.707Z,13.73
2022-10-22T15:22:15.215Z,13.73
2022-10-22T15:24:45.418Z,13.74
2022-10-22T15:27:15.051Z,13.78
2022-10-22T15:29:42.705Z,13.89
2022-10-22T15:32:12.927Z,13.80
2022-10-22T15:34:40.515Z,13.67
2022-10-22T15:37:10.329Z,13.53
2022-10-22T15:39:40.679Z,13.48
2022-10-22T15:42:08.116Z,13.44
2022-10-22T15:44:34.955Z,13.41
2022-10-22T15:47:04.547Z,13.34
2022-10-22T15:49:31.328Z,13.36
2022-10-22T15:51:57.933Z,13.36
2022-10-22T15:54:28.648Z,13.30
2022-10-22T15:56:56.927Z,13.32
2022-10-22T15:59:23.811Z,13.28
2022-10-22T16:01:51.648Z,13.29
2022-10-22T16:04:18.598Z,13.31
2022-10-22T16:06:47.686Z,13.27
2022-10-22T16:09:17.922Z,13.27
2022-10-22T16:11:45.374Z,13.35
2022-10-22T16:14:16.809Z,13.38
2022-10-22T16:16:47.081Z,13.30
2022-10-22T16:19:15.979Z,13.25
2022-10-22T16:21:42.769Z,13.22
2022-10-22T16:24:09.790Z,13.23
2022-10-22T16:26:36.827Z,13.24
2022-10-22T16:29:05.307Z,13.15
2022-10-22T16:31:32.020Z,13.11
2022-10-22T16:33:58.777Z,13.11
2022-10-22T16:36:25.605Z,13.13
2022-10-22T16:38:52.278Z,13.10
2022-10-22T16:41:21.558Z,13.08
2022-10-22T16:43:50.574Z,13.04
2022-10-22T16:46:19.509Z,12.97
2022-10-22T16:48:47.967Z,12.97
2022-10-22T16:51:17.313Z,12.96
2022-10-22T16:53:44.434Z,13.00
2022-10-22T16:56:13.209Z,13.07
2022-10-22T16:58:44.519Z,12.99
2022-10-22T17:01:11.473Z,13.05
2022-10-22T17:03:38.585Z,13.20
2022-10-22T17:06:05.758Z,13.13
2022-10-22T17:08:35.542Z,13.15
2022-10-22T17:11:06.335Z,13.18
2022-10-22T17:13:33.077Z,13.08
2022-10-22T17:16:08.367Z,12.98
2022-10-22T17:18:36.752Z,12.93
2022-10-22T17:21:07.883Z,12.86
2022-10-22T17:23:34.543Z,12.78
2022-10-22T17:26:03.741Z,12.78
2022-10-22T17:28:32.781Z,12.73
2022-10-22T17:31:20.782Z,12.69
2022-10-22T17:33:49.475Z,12.61
2022-10-22T17:36:17.391Z,12.62
2022-10-22T17:38:47.449Z,12.56
2022-10-22T17:41:18.699Z,12.59
2022-10-22T17:46:22.916Z,12.67
2022-10-22T17:48:54.433Z,12.53
2022-10-22T17:51:22.031Z,12.52
2022-10-22T17:53:50.726Z,12.46
2022-10-22T17:56:22.808Z,12.45
2022-10-22T17:58:50.445Z,12.41
2022-10-22T18:01:28.297Z,12.55
2022-10-22T18:03:58.456Z,12.55
2022-10-22T18:06:25.048Z,12.48
2022-10-22T18:08:51.762Z,12.41
2022-10-22T18:11:21.486Z,12.33
2022-10-22T18:13:57.140Z,12.28
2022-10-22T18:16:24.992Z,12.29
2022-10-22T18:18:54.077Z,12.24
2022-10-22T18:21:22.229Z,12.28
2022-10-22T18:23:48.971Z,12.32
2022-10-22T18:26:17.949Z,12.33
2022-10-22T18:28:46.050Z,12.31
2022-10-22T18:31:16.119Z,12.36
2022-10-22T18:33:42.825Z,12.41
2022-10-22T18:36:12.196Z,12.41
2022-10-22T18:38:39.427Z,12.50
2022-10-22T18:41:09.010Z,12.42
2022-10-22T18:43:36.592Z,12.36
2022-10-22T18:46:06.857Z,12.31
2022-10-22T18:48:34.889Z,12.24
2022-10-22T18:51:07.684Z,12.24
2022-10-22T18:53:35.862Z,12.17
2022-10-22T18:56:05.407Z,12.20
2022-10-22T18:58:36.474Z,12.14
2022-10-22T19:01:08.265Z,12.13
2022-10-22T19:03:34.995Z,12.08
2022-10-22T19:06:01.580Z,12.02
2022-10-22T19:08:28.253Z,11.95
2022-10-22T19:10:55.060Z,11.94
2022-10-22T19:13:23.390Z,11.84
2022-10-22T19:15:50.018Z,11.90
2022-10-22T19:18:16.823Z,11.92
2022-10-22T19:20:47.379Z,11.95
2022-10-22T19:23:18.407Z,11.98
2022-10-22T19:25:47.234Z,11.96
2022-10-22T19:28:13.818Z,11.98
2022-10-22T19:30:41.059Z,11.96
2022-10-22T19:33:07.727Z,11.94
2022-10-22T19:35:36.737Z,11.99
2022-10-22T19:38:03.453Z,11.98
2022-10-22T19:40:30.149Z,11.95
2022-10-22T19:42:56.782Z,12.01
2022-10-22T19:45:23.421Z,11.93
2022-10-22T19:47:50.287Z,11.91
2022-10-22T19:50:16.918Z,12.00
2022-10-22T19:52:43.922Z,12.03
2022-10-22T19:55:10.827Z,11.91
2022-10-22T19:57:38.890Z,11.85
2022-10-22T20:00:06.202Z,11.76
2022-10-22T20:02:36.843Z,11.73
2022-10-22T20:05:03.821Z,11.73
2022-10-22T20:07:30.477Z,11.66
2022-10-22T20:09:57.118Z,11.63
2022-10-22T20:12:23.771Z,11.63
2022-10-22T20:14:50.557Z,11.66
2022-10-22T20:17:18.200Z,11.61
2022-10-22T20:19:44.941Z,11.60
2022-10-22T20:22:14.959Z,11.63
2022-10-22T20:24:45.085Z,11.60
2022-10-22T20:27:13.518Z,11.56
2022-10-22T20:29:40.198Z,11.52
2022-10-22T20:32:08.798Z,11.53
2022-10-22T20:34:35.764Z,11.55
2022-10-22T20:37:02.360Z,11.56
2022-10-22T20:39:28.989Z,11.46
2022-10-22T20:41:55.593Z,11.45
2022-10-22T20:44:22.521Z,11.42
2022-10-22T20:46:49.204Z,11.37
2022-10-22T20:49:17.586Z,11.40
2022-10-22T20:51:44.729Z,11.36
2022-10-22T20:54:12.001Z,11.35
2022-10-22T20:56:40.337Z,11.33
2022-10-22T20:59:08.518Z,11.33
2022-10-22T21:01:40.972Z,11.26
2022-10-22T21:04:08.293Z,11.26
2022-10-22T21:06:38.236Z,11.23
2022-10-22T21:09:08.596Z,11.20
2022-10-22T21:11:36.692Z,11.18
2022-10-22T21:14:04.728Z,11.20
2022-10-22T21:16:31.914Z,11.18
2022-10-22T21:18:59.048Z,11.17
2022-10-22T21:21:25.907Z,11.17
2022-10-22T21:23:52.668Z,11.21
2022-10-22T21:26:20.778Z,11.16
2022-10-22T21:28:48.061Z,11.20
2022-10-22T21:31:21.866Z,11.20
2022-10-22T21:33:50.508Z,11.22
2022-10-22T21:36:21.612Z,11.21
2022-10-22T21:38:50.948Z,11.19
2022-10-22T21:41:19.067Z,11.22
2022-10-22T21:43:45.846Z,11.22
2022-10-22T21:46:18.024Z,11.24
2022-10-22T21:48:45.243Z,11.23
2022-10-22T21:51:17.464Z,11.21
2022-10-22T21:53:44.578Z,11.21
2022-10-22T21:56:32.831Z,11.21
2022-10-22T21:59:00.465Z,11.22
2022-10-22T22:01:27.313Z,11.24
2022-10-22T22:03:54.238Z,11.21
2022-10-22T22:06:23.561Z,11.23
2022-10-22T22:08:52.651Z,11.23
2022-10-22T22:11:25.111Z,11.27
2022-10-22T22:13:53.652Z,11.29
2022-10-22T22:16:28.193Z,11.33
2022-10-22T22:18:56.923Z,11.37
2022-10-22T22:21:23.628Z,11.45
2022-10-22T22:23:50.994Z,11.51
2022-10-22T22:26:25.407Z,11.51
2022-10-22T22:28:56.099Z,11.49
2022-10-22T22:31:26.578Z,11.49
2022-10-22T22:34:06.745Z,11.50
2022-10-22T22:36:37.091Z,11.54
2022-10-22T22:39:05.719Z,11.59
2022-10-22T22:41:32.576Z,11.60
2022-10-22T22:43:59.274Z,11.66
2022-10-22T22:46:26.226Z,11.70
2022-10-22T22:48:52.974Z,11.69
2022-10-22T22:51:19.710Z,11.67
2022-10-22T22:53:46.674Z,11.73
2022-10-22T22:56:17.021Z,11.66
2022-10-22T22:58:44.347Z,11.70
2022-10-22T23:01:30.236Z,11.71
2022-10-22T23:04:02.008Z,11.69
2022-10-22T23:06:32.685Z,11.67
2022-10-22T23:08:59.812Z,11.71
2022-10-22T23:11:27.949Z,11.70
2022-10-22T23:13:59.195Z,11.66
2022-10-22T23:16:29.256Z,11.70
2022-10-22T23:18:56.594Z,11.69
2022-10-22T23:21:29.548Z,11.72
2022-10-22T23:23:59.377Z,11.71
2022-10-22T23:26:29.116Z,11.72
2022-10-22T23:29:01.147Z,11.73
2022-10-22T23:31:27.850Z,11.79
2022-10-22T23:33:54.545Z,11.83
2022-10-22T23:36:21.442Z,11.87
2022-10-22T23:38:48.947Z,11.91
2022-10-22T23:41:16.735Z,11.92
2022-10-22T23:43:43.717Z,11.93
2022-10-22T23:46:12.313Z,11.96
2022-10-22T23:48:39.508Z,11.96
2022-10-22T23:51:11.894Z,12.00
2022-10-22T23:53:39.966Z,11.98
2022-10-22T23:56:09.295Z,12.00
2022-10-22T23:58:36.050Z,11.98
